Time;durP1;ratioP1;P1;durP2;ratioP2;P2;SDS_P1;SDS_P2;PMS_P1;PMS_P2;Temp;Humidity;BMP_temperature;BMP_pressure;BME280_temperature;BME280_humidity;BME280_pressure;Samples;Min_cycle;Max_cycle;Signal;HPM_P1;HPM_P2
2022/10/11 00:01:33;;;;;;;22.40;10.90;;;;;;;3.83;78.66;100372.77;106948;1299;23117;-62
2022/10/11 00:03:59;;;;;;;;;;;;;;;3.79;78.98;100369.83;106708;1300;139442;-62
2022/10/11 00:06:26;;;;;;;19.90;9.00;;;;;;;3.76;78.57;100369.02;106973;1292;22919;-61
2022/10/11 00:08:52;;;;;;;24.30;9.80;;;;;;;3.72;78.61;100369.61;106852;1300;138985;-62
2022/10/11 00:11:19;;;;;;;17.90;9.20;;;;;;;3.70;78.84;100363.41;106986;1299;22181;-61
2022/10/11 00:13:48;;;;;;;17.70;9.50;;;;;;;3.69;78.87;100361.95;106946;1294;22188;-61
2022/10/11 00:16:15;;;;;;;23.70;10.80;;;;;;;3.66;78.79;100360.34;106855;1299;138366;-61
2022/10/11 00:18:41;;;;;;;;;;;;;;;3.63;78.84;100356.20;106980;1300;22408;-61
2022/10/11 00:21:10;;;;;;;19.40;9.30;;;;;;;3.59;78.83;100355.27;106856;1299;124830;-61
2022/10/11 00:23:37;;;;;;;15.80;7.50;;;;;;;3.57;78.82;100353.25;106808;1300;22143;-61
2022/10/11 00:26:05;;;;;;;16.70;9.90;;;;;;;3.53;78.89;100352.22;106886;1299;138683;-62
2022/10/11 00:28:32;;;;;;;19.40;9.70;;;;;;;3.51;78.75;100353.80;106791;1286;22153;-61
2022/10/11 00:30:58;;;;;;;20.20;9.60;;;;;;;3.48;78.94;100350.91;106977;1294;22156;-61
2022/10/11 00:33:25;;;;;;;20.70;10.40;;;;;;;3.42;78.88;100348.30;106850;1294;138647;-63
2022/10/11 00:35:51;;;;;;;18.60;9.80;;;;;;;3.42;79.02;100352.56;106948;1299;23122;-61
2022/10/11 00:38:18;;;;;;;19.50;10.20;;;;;;;3.37;78.96;100343.73;106864;1284;137969;-61
2022/10/11 00:40:44;;;;;;;18.50;9.10;;;;;;;3.37;79.13;100349.44;103954;1292;24333;-60
2022/10/11 00:43:19;;;;;;;17.10;9.90;;;;;;;3.35;79.10;100347.17;102575;1286;25216;-60
2022/10/11 00:45:52;;;;;;;16.30;7.90;;;;;;;3.33;79.02;100344.95;106845;1295;137813;-61
2022/10/11 00:48:22;;;;;;;17.80;8.40;;;;;;;3.31;79.14;100348.48;106983;1295;22108;-61
2022/10/11 00:50:48;;;;;;;14.00;8.40;;;;;;;3.29;79.25;100349.44;106846;1291;138673;-61
2022/10/11 00:53:15;;;;;;;22.90;8.20;;;;;;;3.26;79.13;100346.54;106983;1300;22337;-60
2022/10/11 00:55:48;;;;;;;16.30;9.30;;;;;;;3.24;79.22;100345.39;106910;1300;22194;-63
2022/10/11 00:58:16;;;;;;;15.30;8.20;;;;;;;3.23;79.28;100344.05;106680;1300;138672;-63
2022/10/11 01:00:43;;;;;;;13.10;8.30;;;;;;;3.21;79.16;100343.54;106953;1294;22143;-63
2022/10/11 01:03:09;;;;;;;16.00;8.70;;;;;;;3.20;79.54;100344.70;106878;1285;138430;-64
2022/10/11 01:05:36;;;;;;;12.70;8.30;;;;;;;3.20;79.59;100346.34;106963;1295;23215;-64
2022/10/11 01:08:03;;;;;;;;;;;;;;;3.20;79.58;100345.97;106755;1300;138798;-64
2022/10/11 01:10:30;;;;;;;20.10;9.90;;;;;;;3.19;79.68;100347.23;106982;1295;22129;-63
2022/10/11 01:13:25;;;;;;;23.90;11.00;;;;;;;3.19;79.81;100343.27;106766;1298;22935;-64
2022/10/11 01:15:54;;;;;;;17.50;9.90;;;;;;;3.23;80.28;100346.61;106816;1301;139059;-64
2022/10/11 01:18:27;;;;;;;19.50;9.00;;;;;;;3.26;80.82;100346.51;106907;1303;22982;-62
2022/10/11 01:21:09;;;;;;;19.60;10.30;;;;;;;3.31;81.34;100345.37;106778;1295;138625;-62
2022/10/11 01:24:10;;;;;;;22.40;10.60;;;;;;;3.36;81.33;100348.01;106838;1293;22349;-62
2022/10/11 01:27:14;;;;;;;15.50;9.20;;;;;;;3.39;81.11;100348.80;106510;1293;139819;-63
2022/10/11 01:29:52;;;;;;;18.10;10.20;;;;;;;3.41;81.26;100351.52;106972;1292;22113;-63
2022/10/11 01:32:23;;;;;;;20.50;9.60;;;;;;;3.41;81.17;100353.46;106687;1300;139577;-61
2022/10/11 01:35:00;;;;;;;17.70;8.70;;;;;;;3.40;80.99;100352.13;106942;1300;22095;-60
2022/10/11 01:37:36;;;;;;;16.50;8.50;;;;;;;3.39;80.95;100356.63;106804;1300;22122;-61
2022/10/11 01:40:12;;;;;;;18.40;10.20;;;;;;;3.36;80.34;100355.67;104970;1303;138693;-59
2022/10/11 01:42:39;;;;;;;20.30;10.10;;;;;;;3.35;80.58;100356.57;102578;1308;24012;-59
2022/10/11 01:45:08;;;;;;;27.00;10.80;;;;;;;3.33;80.74;100360.33;106413;1294;138156;-59
2022/10/11 01:47:37;;;;;;;24.20;10.10;;;;;;;3.33;80.45;100364.92;106967;1284;22081;-59
2022/10/11 01:50:06;;;;;;;19.80;9.20;;;;;;;3.32;80.39;100362.42;106973;1299;23358;-61
2022/10/11 01:52:34;;;;;;;13.90;7.10;;;;;;;3.32;80.86;100362.47;106980;1291;22126;-60
2022/10/11 01:55:22;;;;;;;17.90;8.50;;;;;;;3.32;80.98;100364.21;106812;1294;23298;-61
2022/10/11 01:58:05;;;;;;;18.10;8.00;;;;;;;3.31;80.85;100363.30;106628;1300;138690;-60
2022/10/11 02:00:42;;;;;;;22.30;8.20;;;;;;;3.31;80.82;100361.45;106749;1300;22948;-60
2022/10/11 02:03:57;;;;;;;15.90;7.30;;;;;;;3.29;81.14;100358.39;106719;1302;138235;-59
2022/10/11 02:06:31;;;;;;;16.80;9.10;;;;;;;3.28;81.05;100362.41;106526;1291;22313;-60
2022/10/11 02:09:15;;;;;;;17.70;7.70;;;;;;;3.27;81.23;100361.27;106371;1306;139359;-59
2022/10/11 02:11:41;;;;;;;18.90;7.50;;;;;;;3.27;81.17;100366.16;106536;1306;22189;-59
2022/10/11 02:14:10;;;;;;;15.90;7.90;;;;;;;3.27;80.98;100361.17;106312;1306;138125;-60
2022/10/11 02:16:50;;;;;;;16.90;7.90;;;;;;;3.26;81.13;100358.94;106478;1306;22132;-58
2022/10/11 02:19:18;;;;;;;17.70;7.90;;;;;;;3.24;81.26;100357.04;106331;1306;22188;-57
2022/10/11 02:21:46;;;;;;;14.00;6.70;;;;;;;3.23;81.20;100355.23;106424;1298;139241;-57
2022/10/11 02:24:17;;;;;;;14.50;6.70;;;;;;;3.20;81.13;100353.02;106352;1300;22397;-57
2022/10/11 02:26:47;;;;;;;18.40;8.10;;;;;;;3.17;80.71;100350.67;106380;1300;139326;-57
2022/10/11 02:29:14;;;;;;;19.00;7.80;;;;;;;3.15;80.71;100354.48;106428;1306;22138;-57
2022/10/11 02:31:41;;;;;;;14.50;7.30;;;;;;;3.13;80.72;100354.02;106466;1306;22152;-59
2022/10/11 02:34:17;;;;;;;13.60;7.50;;;;;;;3.11;80.51;100353.75;106263;1292;138355;-61
2022/10/11 02:36:53;;;;;;;14.00;7.40;;;;;;;3.08;80.63;100357.06;106385;1306;22377;-60
2022/10/11 02:39:25;;;;;;;12.00;7.00;;;;;;;3.03;80.42;100358.88;106347;1296;138568;-61
2022/10/11 02:41:51;;;;;;;15.90;8.20;;;;;;;3.00;80.45;100359.50;106814;1285;22142;-60
2022/10/11 02:44:31;;;;;;;14.60;7.80;;;;;;;2.97;80.38;100359.70;106684;1302;137952;-60
2022/10/11 02:46:59;;;;;;;15.40;6.90;;;;;;;2.91;80.40;100353.79;106819;1300;22134;-60
2022/10/11 02:49:26;;;;;;;14.40;8.50;;;;;;;2.88;80.31;100355.77;106859;1294;22132;-60
2022/10/11 02:51:56;;;;;;;14.50;6.50;;;;;;;2.89;80.39;100359.02;106830;1285;138386;-60
2022/10/11 02:54:24;;;;;;;16.40;7.60;;;;;;;2.87;80.49;100358.42;106957;1300;22145;-60
2022/10/11 02:56:51;;;;;;;19.40;7.70;;;;;;;2.86;80.61;100359.58;106824;1293;137964;-60
2022/10/11 02:59:17;;;;;;;14.20;7.20;;;;;;;2.87;80.82;100360.54;106888;1303;22096;-60
2022/10/11 03:01:44;;;;;;;13.00;7.40;;;;;;;2.88;80.85;100360.80;106918;1299;22130;-60
2022/10/11 03:04:11;;;;;;;15.00;6.90;;;;;;;2.87;80.99;100359.60;106859;1299;138364;-62
2022/10/11 03:06:39;;;;;;;14.40;7.00;;;;;;;2.85;80.76;100357.37;106943;1299;22109;-62
2022/10/11 03:09:05;;;;;;;14.20;8.20;;;;;;;2.82;81.01;100354.27;106907;1299;139608;-62
2022/10/11 03:11:32;;;;;;;11.10;6.80;;;;;;;2.81;80.86;100357.69;106994;1287;22169;-62
2022/10/11 03:14:00;;;;;;;13.90;7.00;;;;;;;2.78;80.75;100357.67;106975;1293;22105;-62
2022/10/11 03:16:27;;;;;;;16.00;7.60;;;;;;;2.76;80.85;100354.27;106878;1294;137476;-62
2022/10/11 03:18:53;;;;;;;16.90;7.80;;;;;;;2.75;80.60;100357.27;106978;1300;22111;-62
2022/10/11 03:21:20;;;;;;;12.50;7.40;;;;;;;2.75;80.74;100354.60;106888;1299;138649;-62
2022/10/11 03:23:46;;;;;;;15.10;7.60;;;;;;;2.74;80.57;100355.31;106982;1299;22316;-61
2022/10/11 03:26:13;;;;;;;12.10;7.80;;;;;;;2.71;80.80;100357.40;106857;1299;137979;-62
2022/10/11 03:28:39;;;;;;;18.60;7.00;;;;;;;2.70;80.66;100356.01;106936;1299;22111;-62
2022/10/11 03:31:06;;;;;;;12.00;7.70;;;;;;;2.68;80.68;100352.76;106974;1285;22452;-59
2022/10/11 03:33:33;;;;;;;;;;;;;;;2.69;81.02;100354.97;106130;1299;998740;-59
2022/10/11 03:37:17;;;;;;;15.30;7.40;;;;;;;2.75;81.37;100353.60;100963;1331;544954;-59
2022/10/11 03:39:44;;;;;;;15.20;7.50;;;;;;;2.75;81.39;100354.65;102571;1323;137224;-60
2022/10/11 03:42:12;;;;;;;13.60;6.90;;;;;;;2.76;81.55;100356.08;102697;1324;22531;-59
2022/10/11 03:44:40;;;;;;;14.80;7.60;;;;;;;2.76;81.60;100354.50;102677;1323;137212;-58
2022/10/11 03:47:07;;;;;;;15.20;7.10;;;;;;;2.76;81.74;100352.75;102745;1323;22592;-59
2022/10/11 03:49:34;;;;;;;15.50;7.00;;;;;;;2.73;81.52;100352.04;102678;1323;23261;-58
2022/10/11 03:52:05;;;;;;;12.30;6.90;;;;;;;2.69;81.66;100351.77;105107;1313;1071952;-59
2022/10/11 03:54:32;;;;;;;12.80;7.20;;;;;;;2.65;81.58;100347.48;106090;1313;22188;-59
2022/10/11 03:56:58;;;;;;;20.40;10.30;;;;;;;2.62;81.54;100347.08;105920;1306;137402;-59
2022/10/11 03:59:25;;;;;;;10.50;6.60;;;;;;;2.60;81.44;100347.96;106006;1310;22098;-59
2022/10/11 04:01:52;;;;;;;12.00;6.50;;;;;;;2.56;81.46;100347.83;106037;1297;22182;-59
2022/10/11 04:04:19;;;;;;;14.10;8.20;;;;;;;2.53;81.35;100348.16;105892;1318;138064;-59
2022/10/11 04:06:45;;;;;;;17.90;8.20;;;;;;;2.49;81.35;100346.36;106013;1313;22225;-59
2022/10/11 04:09:12;;;;;;;20.80;9.00;;;;;;;2.51;81.28;100354.41;105874;1318;139414;-59
2022/10/11 04:11:39;;;;;;;21.10;9.90;;;;;;;2.50;81.27;100356.30;105968;1316;22136;-59
2022/10/11 04:14:05;;;;;;;17.60;9.80;;;;;;;2.50;81.25;100359.52;105853;1313;137622;-60
2022/10/11 04:16:34;;;;;;;19.60;11.00;;;;;;;2.46;81.13;100360.42;105949;1311;22246;-59
2022/10/11 04:19:00;;;;;;;16.30;8.90;;;;;;;2.44;81.00;100365.55;106025;1296;22200;-61
2022/10/11 04:21:27;;;;;;;18.30;10.10;;;;;;;2.43;81.08;100368.55;106241;1310;138742;-61
2022/10/11 04:23:54;;;;;;;25.10;10.30;;;;;;;2.43;81.30;100371.65;106302;1303;22990;-61
2022/10/11 04:26:20;;;;;;;16.80;8.80;;;;;;;2.44;81.45;100371.05;106230;1296;138280;-61
2022/10/11 04:28:47;;;;;;;18.20;9.80;;;;;;;2.42;81.69;100365.84;106314;1309;22916;-58
2022/10/11 04:31:14;;;;;;;21.20;7.70;;;;;;;2.47;81.94;100374.91;106323;1309;22126;-61
2022/10/11 04:33:41;;;;;;;17.00;8.90;;;;;;;2.44;82.00;100367.60;106211;1304;137663;-62
2022/10/11 04:36:07;;;;;;;21.00;9.30;;;;;;;2.52;82.09;100378.94;106335;1303;22452;-62
2022/10/11 04:38:34;;;;;;;16.50;8.70;;;;;;;2.54;82.03;100381.41;106219;1309;138079;-61
2022/10/11 04:41:08;;;;;;;19.50;9.20;;;;;;;2.55;82.10;100381.84;106392;1307;22221;-61
2022/10/11 04:43:35;;;;;;;15.20;8.70;;;;;;;2.56;82.12;100380.85;106312;1303;22509;-61
2022/10/11 04:46:02;;;;;;;23.20;10.40;;;;;;;2.57;82.04;100382.66;106220;1309;138577;-61
2022/10/11 04:48:30;;;;;;;40.30;13.10;;;;;;;2.58;82.08;100385.41;106314;1310;22131;-61
2022/10/11 04:50:56;;;;;;;;;;;;;;;2.60;82.16;100382.64;106291;1310;138350;-61
2022/10/11 04:53:23;;;;;;;24.80;10.20;;;;;;;2.61;82.13;100380.00;106364;1309;22185;-61
2022/10/11 04:56:00;;;;;;;;;;;;;;;2.64;82.33;100380.61;106412;1309;22430;-62
2022/10/11 04:58:28;;;;;;;36.00;12.00;;;;;;;2.67;82.48;100377.39;106248;1310;124063;-61
2022/10/11 05:00:54;;;;;;;31.60;13.20;;;;;;;2.69;82.92;100378.21;106364;1309;23223;-61
2022/10/11 05:03:21;;;;;;;40.30;13.00;;;;;;;2.72;83.15;100374.01;106118;1310;137727;-62
2022/10/11 05:05:51;;;;;;;38.40;13.90;;;;;;;2.76;83.11;100374.27;106145;1310;22152;-61
2022/10/11 05:08:18;;;;;;;40.70;15.20;;;;;;;2.79;83.09;100374.41;106178;1302;137876;-62
2022/10/11 05:11:03;;;;;;;56.10;21.70;;;;;;;2.83;83.36;100372.13;106363;1309;22150;-61
2022/10/11 05:13:30;;;;;;;54.10;18.90;;;;;;;2.90;83.64;100374.59;106372;1309;22179;-62
2022/10/11 05:15:56;;;;;;;45.60;18.00;;;;;;;2.95;83.82;100379.10;106227;1309;137716;-62
2022/10/11 05:18:23;;;;;;;49.50;18.40;;;;;;;3.01;83.87;100378.86;106339;1302;22228;-61
2022/10/11 05:21:07;;;;;;;63.30;24.00;;;;;;;3.08;84.03;100379.56;106295;1309;138862;-61
2022/10/11 05:23:34;;;;;;;47.30;17.30;;;;;;;3.17;84.13;100380.08;106286;1308;22262;-61
2022/10/11 05:26:01;;;;;;;50.70;16.60;;;;;;;3.27;84.42;100375.35;106161;1309;22159;-61
2022/10/11 05:28:29;;;;;;;37.60;14.70;;;;;;;3.36;84.43;100372.79;106258;1309;138727;-61
2022/10/11 05:30:56;;;;;;;;;;;;;;;3.44;84.44;100371.86;106358;1309;22318;-61
2022/10/11 05:33:23;;;;;;;25.00;10.80;;;;;;;3.54;84.47;100369.96;106257;1309;124329;-61
2022/10/11 05:35:49;;;;;;;;;;;;;;;3.62;84.60;100372.04;106215;1309;22450;-62
2022/10/11 05:38:16;;;;;;;23.40;9.50;;;;;;;3.70;84.37;100366.81;106219;1309;125045;-62
2022/10/11 05:40:43;;;;;;;20.50;11.10;;;;;;;3.79;84.37;100368.75;104293;1302;22513;-61
2022/10/11 05:43:10;;;;;;;25.70;14.10;;;;;;;3.88;84.38;100368.98;103142;1308;22487;-61
2022/10/11 05:45:37;;;;;;;29.30;16.00;;;;;;;3.98;84.30;100364.77;103000;1302;138749;-61
2022/10/11 05:48:04;;;;;;;21.70;13.50;;;;;;;4.06;84.59;100362.85;103336;1312;22543;-61
2022/10/11 05:50:31;;;;;;;21.70;12.30;;;;;;;4.15;84.32;100367.62;103018;1308;138309;-61
2022/10/11 05:52:58;;;;;;;;;;;;;;;4.23;84.10;100368.38;103276;1302;22469;-60
2022/10/11 05:55:25;;;;;;;50.10;24.60;;;;;;;4.30;84.40;100371.38;102221;1291;24244;-60
2022/10/11 05:57:53;;;;;;;23.20;14.30;;;;;;;4.38;84.45;100371.81;102080;1305;139215;-61
2022/10/11 06:00:20;;;;;;;23.70;13.10;;;;;;;4.48;84.46;100373.74;106670;1306;22160;-61
2022/10/11 06:02:47;;;;;;;22.70;12.60;;;;;;;4.58;84.42;100376.52;106559;1306;137702;-61
2022/10/11 06:05:15;;;;;;;21.40;13.10;;;;;;;4.69;84.34;100372.80;106579;1299;22086;-60
2022/10/11 06:07:41;;;;;;;24.60;14.90;;;;;;;4.81;84.51;100373.48;106671;1305;22116;-61
2022/10/11 06:10:08;;;;;;;;;;;;;;;4.91;84.44;100368.30;106579;1298;138824;-62
2022/10/11 06:12:35;;;;;;;26.70;16.60;;;;;;;5.02;84.53;100369.52;106591;1306;22189;-62
2022/10/11 06:15:02;;;;;;;;;;;;;;;5.13;84.54;100371.85;106557;1306;139083;-61
2022/10/11 06:17:29;;;;;;;22.70;13.80;;;;;;;5.25;84.13;100377.33;106503;1301;22150;-62
2022/10/11 06:19:56;;;;;;;;;;;;;;;5.35;84.16;100377.66;106581;1282;22417;-63
2022/10/11 06:22:23;;;;;;;30.00;15.00;;;;;;;5.45;83.90;100377.02;106489;1304;123854;-62
2022/10/11 06:24:49;;;;;;;32.00;18.70;;;;;;;5.56;83.70;100379.17;106575;1304;23753;-62
2022/10/11 06:27:16;;;;;;;;;;;;;;;5.67;83.86;100378.36;106504;1306;138913;-62
2022/10/11 06:29:43;;;;;;;30.80;16.00;;;;;;;5.79;83.81;100375.72;106605;1306;22181;-62
2022/10/11 06:32:12;;;;;;;27.20;11.50;;;;;;;5.90;83.69;100370.98;106478;1306;138045;-63
2022/10/11 06:34:38;;;;;;;23.00;10.80;;;;;;;6.00;83.40;100371.00;106510;1306;22158;-62
2022/10/11 06:37:06;;;;;;;20.50;10.40;;;;;;;6.12;83.51;100368.73;106559;1296;22321;-63
2022/10/11 06:39:33;;;;;;;25.90;12.70;;;;;;;6.20;83.33;100360.41;105894;1306;138573;-59
2022/10/11 06:42:00;;;;;;;33.80;16.30;;;;;;;6.33;83.08;100363.20;106344;1305;22175;-61
2022/10/11 06:44:28;;;;;;;19.00;10.50;;;;;;;6.44;82.87;100361.06;106465;1306;138371;-59
2022/10/11 06:46:54;;;;;;;16.30;9.80;;;;;;;6.54;82.30;100358.95;106598;1306;22240;-61
2022/10/11 06:49:21;;;;;;;15.80;8.40;;;;;;;6.63;81.63;100360.31;106582;1306;22137;-61
2022/10/11 06:51:49;;;;;;;18.60;8.50;;;;;;;6.74;81.64;100358.83;106461;1304;138108;-61
2022/10/11 06:54:16;;;;;;;22.10;9.00;;;;;;;6.85;81.26;100359.27;106568;1305;22134;-61
2022/10/11 06:56:44;;;;;;;15.40;8.80;;;;;;;6.95;80.46;100355.63;106481;1306;139297;-63
2022/10/11 06:59:12;;;;;;;18.20;8.90;;;;;;;7.06;80.26;100354.17;106585;1303;22138;-63
2022/10/11 07:01:40;;;;;;;20.60;7.60;;;;;;;7.17;80.16;100354.59;106521;1303;22157;-62
2022/10/11 07:04:07;;;;;;;17.40;7.60;;;;;;;7.28;79.85;100356.41;106405;1305;138904;-62
2022/10/11 07:06:38;;;;;;;12.10;7.10;;;;;;;7.40;79.17;100354.96;106594;1306;22358;-63
2022/10/11 07:09:05;;;;;;;55.20;32.90;;;;;;;7.50;78.73;100356.67;106457;1305;137851;-59
2022/10/11 07:11:32;;;;;;;39.60;19.00;;;;;;;7.60;78.43;100358.36;106591;1306;22143;-62
2022/10/11 07:14:01;;;;;;;19.10;9.10;;;;;;;7.73;78.20;100357.82;106597;1306;22184;-56
2022/10/11 07:16:27;;;;;;;17.40;7.20;;;;;;;7.86;77.73;100358.44;106485;1287;138407;-57
2022/10/11 07:18:56;;;;;;;;;;;;;;;7.96;77.27;100352.89;106601;1303;22387;-56
2022/10/11 07:21:27;;;;;;;15.50;7.20;;;;;;;8.10;76.64;100351.02;106536;1306;124346;-56
2022/10/11 07:23:53;;;;;;;22.40;7.30;;;;;;;8.20;76.31;100345.82;106701;1294;22134;-57
2022/10/11 07:26:20;;;;;;;;;;;;;;;8.29;75.70;100348.44;106542;1305;137798;-57
2022/10/11 07:28:47;;;;;;;14.50;7.30;;;;;;;8.38;75.09;100345.46;106610;1305;22185;-56
2022/10/11 07:31:19;;;;;;;19.80;8.30;;;;;;;8.48;75.00;100347.13;106604;1289;22149;-56
2022/10/11 07:33:45;;;;;;;13.30;6.60;;;;;;;8.58;74.29;100345.27;106467;1306;139309;-57
2022/10/11 07:36:12;;;;;;;19.80;7.60;;;;;;;8.67;73.52;100343.46;106604;1305;23007;-56
2022/10/11 07:38:40;;;;;;;13.20;6.20;;;;;;;8.77;73.05;100335.91;106460;1306;138700;-56
2022/10/11 07:41:07;;;;;;;15.50;6.20;;;;;;;8.88;72.47;100334.82;106591;1305;22161;-55
2022/10/11 07:43:34;;;;;;;10.50;4.20;;;;;;;8.98;71.51;100330.80;106540;1306;22155;-55
2022/10/11 07:46:02;;;;;;;7.80;3.70;;;;;;;9.08;70.52;100324.30;106452;1305;138510;-55
2022/10/11 07:48:31;;;;;;;8.00;4.10;;;;;;;9.16;70.03;100323.77;106567;1306;22319;-57
2022/10/11 07:51:20;;;;;;;12.10;4.10;;;;;;;9.27;68.98;100322.15;106477;1304;137716;-56
2022/10/11 07:53:48;;;;;;;10.00;3.70;;;;;;;9.39;68.70;100321.61;106556;1306;22243;-57
2022/10/11 07:56:17;;;;;;;4.40;2.00;;;;;;;9.50;68.58;100323.34;106472;1306;139346;-56
2022/10/11 07:58:47;;;;;;;2.50;1.30;;;;;;;9.60;67.06;100317.04;106355;1313;22198;-56
2022/10/11 08:01:14;;;;;;;2.90;1.20;;;;;;;9.72;65.54;100318.19;106516;1306;22098;-55
2022/10/11 08:03:41;;;;;;;3.20;1.40;;;;;;;9.80;64.24;100320.33;106578;1305;138289;-55
2022/10/11 08:06:08;;;;;;;;;;;;;;;9.88;63.47;100322.10;106591;1306;22346;-55
2022/10/11 08:08:35;;;;;;;2.80;1.50;;;;;;;9.91;63.74;100313.96;106490;1306;123900;-56
2022/10/11 08:11:02;;;;;;;;;;;;;;;10.00;62.65;100319.55;106584;1291;22407;-56
2022/10/11 08:13:29;;;;;;;3.60;1.80;;;;;;;10.05;62.38;100316.75;106696;1306;22140;-56
2022/10/11 08:15:56;;;;;;;2.80;1.60;;;;;;;10.09;60.89;100314.83;106428;1306;137994;-56
2022/10/11 08:18:23;;;;;;;4.30;1.50;;;;;;;10.13;60.70;100315.46;106659;1306;23124;-57
2022/10/11 08:20:50;;;;;;;3.70;1.80;;;;;;;10.18;60.76;100316.88;106552;1300;138993;-55
2022/10/11 08:23:16;;;;;;;;;;;;;;;10.25;59.61;100314.32;106598;1303;22357;-55
2022/10/11 08:25:45;;;;;;;2.60;1.50;;;;;;;10.29;58.99;100316.27;106560;1306;22341;-54
2022/10/11 08:28:19;;;;;;;4.80;1.40;;;;;;;10.33;58.73;100313.31;106485;1305;138350;-57
2022/10/11 08:30:50;;;;;;;4.30;1.20;;;;;;;10.37;58.46;100315.48;106525;1297;22158;-59
2022/10/11 08:33:17;;;;;;;5.50;1.20;;;;;;;10.41;58.10;100317.56;106570;1306;137911;-58
2022/10/11 08:35:44;;;;;;;5.20;2.10;;;;;;;10.43;57.80;100314.41;106577;1290;22166;-58
2022/10/11 08:38:11;;;;;;;4.90;2.40;;;;;;;10.46;57.93;100309.59;106606;1306;22138;-57
2022/10/11 08:40:48;;;;;;;3.80;2.20;;;;;;;10.50;58.24;100305.92;106365;1313;22118;-56
2022/10/11 08:43:46;;;;;;;5.00;1.60;;;;;;;10.53;58.64;100300.11;106573;1293;22227;-57
2022/10/11 08:46:12;;;;;;;5.80;2.00;;;;;;;10.59;58.22;100303.48;106456;1305;137560;-58
2022/10/11 08:48:48;;;;;;;3.60;2.30;;;;;;;10.63;58.13;100295.36;106454;1305;22284;-57
2022/10/11 08:51:30;;;;;;;5.70;2.30;;;;;;;10.68;57.71;100294.20;106447;1306;137960;-56
2022/10/11 08:54:10;;;;;;;2.50;1.80;;;;;;;10.73;57.64;100294.31;106586;1299;22145;-57
2022/10/11 08:56:38;;;;;;;2.60;1.70;;;;;;;10.76;57.46;100288.89;106421;1306;137727;-57
2022/10/11 08:59:07;;;;;;;2.40;1.70;;;;;;;10.83;56.50;100294.78;106533;1305;23279;-57
2022/10/11 09:01:34;;;;;;;1.70;1.10;;;;;;;10.87;56.23;100294.83;106547;1292;22126;-57
2022/10/11 09:04:02;;;;;;;1.90;1.20;;;;;;;10.90;55.76;100288.69;106440;1304;138405;-57
2022/10/11 09:06:35;;;;;;;1.50;1.00;;;;;;;10.93;54.11;100289.30;106602;1303;23302;-58
2022/10/11 09:09:17;;;;;;;2.20;1.10;;;;;;;10.97;52.97;100290.78;106542;1303;138198;-56
2022/10/11 09:11:55;;;;;;;1.40;1.00;;;;;;;11.01;53.66;100291.84;106702;1306;22140;-56
2022/10/11 09:14:44;;;;;;;2.10;1.30;;;;;;;11.08;53.81;100287.30;106476;1304;137511;-57
2022/10/11 09:17:36;;;;;;;4.90;1.80;;;;;;;11.15;53.53;100284.97;106598;1304;22136;-57
2022/10/11 09:20:21;;;;;;;2.30;1.30;;;;;;;11.20;53.82;100287.59;106660;1303;23381;-57
2022/10/11 09:23:07;;;;;;;1.60;1.30;;;;;;;11.20;53.51;100279.13;106572;1298;22320;-56
2022/10/11 09:25:36;;;;;;;1.40;1.00;;;;;;;11.27;53.93;100284.73;106599;1291;23008;-57
2022/10/11 09:28:23;;;;;;;1.40;1.30;;;;;;;11.31;52.56;100286.70;106412;1303;137521;-57
2022/10/11 09:30:51;;;;;;;1.80;1.20;;;;;;;11.35;52.82;100287.67;106564;1306;22119;-57
2022/10/11 09:33:20;;;;;;;3.50;1.80;;;;;;;11.39;52.77;100283.96;106357;1306;138507;-57
2022/10/11 09:35:49;;;;;;;8.30;4.70;;;;;;;11.42;52.82;100279.70;106603;1306;22361;-56
2022/10/11 09:38:39;;;;;;;51.20;29.80;;;;;;;11.46;53.17;100283.48;106557;1303;22210;-58
2022/10/11 09:41:33;;;;;;;13.40;5.30;;;;;;;11.50;52.64;100280.02;106482;1306;22142;-58
2022/10/11 09:44:00;;;;;;;18.80;10.00;;;;;;;11.54;51.93;100277.30;106587;1306;22218;-58
2022/10/11 09:46:31;;;;;;;;;;;;;;;11.57;51.81;100277.95;106496;1305;138276;-57
2022/10/11 09:48:58;;;;;;;74.90;46.60;;;;;;;11.58;51.98;100273.89;106631;1298;22139;-51
2022/10/11 09:51:24;;;;;;;;;;;;;;;11.61;51.87;100274.55;106491;1306;138590;-51
2022/10/11 09:54:01;;;;;;;21.50;13.40;;;;;;;11.62;51.72;100271.84;106617;1305;22455;-58
2022/10/11 09:56:29;;;;;;;8.90;4.50;;;;;;;11.69;51.31;100275.77;106466;1304;138313;-58
2022/10/11 09:59:26;;;;;;;6.80;3.70;;;;;;;11.72;51.54;100271.23;106569;1290;23009;-58
2022/10/11 10:02:11;;;;;;;7.90;2.10;;;;;;;11.75;51.42;100269.82;106681;1288;22142;-54
2022/10/11 10:05:21;;;;;;;2.70;1.80;;;;;;;11.79;51.14;100266.81;106476;1285;139517;-58
2022/10/11 10:07:57;;;;;;;3.20;1.20;;;;;;;11.82;51.14;100266.84;106600;1306;22342;-58
2022/10/11 10:10:38;;;;;;;7.30;1.60;;;;;;;11.88;50.38;100262.45;106464;1303;137473;-60
2022/10/11 10:13:25;;;;;;;2.70;1.60;;;;;;;11.92;50.21;100261.39;106688;1306;22284;-57
2022/10/11 10:15:54;;;;;;;3.50;2.00;;;;;;;11.97;50.48;100258.84;106473;1295;137677;-56
2022/10/11 10:18:34;;;;;;;4.30;2.00;;;;;;;12.01;49.86;100257.20;106526;1306;22177;-56
2022/10/11 10:21:01;;;;;;;3.70;2.40;;;;;;;12.05;48.93;100254.20;106559;1303;137989;-56
2022/10/11 10:23:30;;;;;;;3.40;2.10;;;;;;;12.06;49.55;100251.22;106493;1291;22341;-57
2022/10/11 10:26:20;;;;;;;4.60;2.10;;;;;;;12.07;48.91;100248.50;106503;1299;22104;-52
2022/10/11 10:28:59;;;;;;;22.00;8.20;;;;;;;12.08;48.74;100242.46;106434;1305;137283;-57
2022/10/11 10:31:33;;;;;;;5.80;2.90;;;;;;;12.10;49.55;100243.98;106572;1300;22797;-57
2022/10/11 10:34:31;;;;;;;6.10;2.30;;;;;;;12.14;48.96;100241.06;106528;1306;139035;-58
2022/10/11 10:37:05;;;;;;;7.10;2.30;;;;;;;12.19;49.10;100242.51;106527;1291;22244;-57
2022/10/11 10:39:41;;;;;;;6.80;2.10;;;;;;;12.22;49.13;100238.96;105855;1306;137432;-57
2022/10/11 10:42:14;;;;;;;6.20;2.80;;;;;;;12.27;48.65;100237.10;103752;1305;24451;-56
2022/10/11 10:44:41;;;;;;;5.60;3.00;;;;;;;12.30;48.70;100239.28;103506;1292;138309;-57
2022/10/11 10:47:28;;;;;;;7.50;2.60;;;;;;;12.33;48.77;100231.40;103645;1297;24270;-57
2022/10/11 10:50:14;;;;;;;8.80;2.40;;;;;;;12.36;47.90;100222.98;103803;1305;22611;-56
2022/10/11 10:52:42;;;;;;;7.20;2.40;;;;;;;12.40;47.74;100224.89;103520;1300;138380;-57
2022/10/11 10:55:23;;;;;;;5.60;2.60;;;;;;;12.44;47.20;100217.34;103630;1281;22487;-56
2022/10/11 10:58:15;;;;;;;4.60;2.70;;;;;;;12.48;47.17;100215.14;103585;1305;137903;-57
2022/10/11 11:00:49;;;;;;;4.60;2.70;;;;;;;12.49;46.89;100211.61;103819;1296;22503;-57
2022/10/11 11:03:38;;;;;;;4.80;2.70;;;;;;;12.51;47.21;100209.08;103575;1298;138434;-58
2022/10/11 11:06:06;;;;;;;4.90;2.40;;;;;;;12.54;46.89;100203.38;103512;1295;22576;-58
2022/10/11 11:08:58;;;;;;;7.00;2.80;;;;;;;12.55;47.16;100204.15;103479;1298;137994;-57
2022/10/11 11:11:41;;;;;;;8.70;2.70;;;;;;;12.56;46.20;100201.09;103717;1313;22669;-58
2022/10/11 11:14:29;;;;;;;5.40;2.50;;;;;;;12.55;46.53;100195.01;103703;1313;22975;-58
2022/10/11 11:17:02;;;;;;;3.90;2.90;;;;;;;12.57;45.75;100193.45;106596;1305;23041;-59
2022/10/11 11:19:56;;;;;;;6.80;2.70;;;;;;;12.59;45.63;100187.35;106555;1306;22152;-58
2022/10/11 11:22:38;;;;;;;6.90;2.60;;;;;;;12.61;45.63;100189.63;106225;1309;137858;-59
2022/10/11 11:25:26;;;;;;;7.40;3.10;;;;;;;12.63;45.82;100181.19;106367;1309;22386;-57
2022/10/11 11:28:13;;;;;;;;;;;;;;;12.71;45.48;100180.98;106260;1309;138428;-56
2022/10/11 11:30:49;;;;;;;10.40;2.50;;;;;;;12.75;45.77;100179.02;106309;1309;22206;-57
2022/10/11 11:33:35;;;;;;;5.00;2.90;;;;;;;12.78;45.72;100176.14;106232;1301;139023;-59
2022/10/11 11:36:04;;;;;;;8.00;2.60;;;;;;;12.81;46.37;100173.13;106337;1309;22996;-57
2022/10/11 11:38:40;;;;;;;5.50;3.30;;;;;;;12.84;47.26;100173.91;106069;1309;138083;-58